Time;durP1;ratioP1;P1;durP2;ratioP2;P2;SDS_P1;SDS_P2;PMS_P1;PMS_P2;Temp;Humidity;BMP_temperature;BMP_pressure;BME280_temperature;BME280_humidity;BME280_pressure;Samples;Min_cycle;Max_cycle;Signal;HPM_P1;HPM_P2
2022/08/30 00:02:36;;;;;;;6.63;6.03;;;19.10;99.90;;;;;;5044291;28;20247;-61
2022/08/30 00:05:02;;;;;;;6.13;5.53;;;19.10;99.90;;;;;;5048530;28;20189;-60
2022/08/30 00:07:27;;;;;;;6.07;5.57;;;18.90;99.90;;;;;;5054452;28;20204;-60
2022/08/30 00:09:53;;;;;;;6.30;5.70;;;18.90;99.90;;;;;;5042264;28;20900;-61
2022/08/30 00:12:22;;;;;;;6.17;5.67;;;18.90;99.90;;;;;;5049679;28;20244;-60
2022/08/30 00:14:48;;;;;;;6.32;5.75;;;18.90;99.90;;;;;;5046506;28;20189;-61
2022/08/30 00:17:13;;;;;;;6.20;5.23;;;18.90;99.90;;;;;;5049968;28;20192;-59
2022/08/30 00:19:39;;;;;;;6.00;5.40;;;18.90;99.90;;;;;;5044162;28;20210;-59
2022/08/30 00:22:05;;;;;;;7.23;6.53;;;19.10;99.90;;;;;;5042422;28;20651;-60
2022/08/30 00:24:31;;;;;;;6.93;6.25;;;18.90;99.90;;;;;;5045684;28;20185;-59
2022/08/30 00:26:57;;;;;;;8.63;6.50;;;18.90;99.90;;;;;;5047141;28;20193;-60
2022/08/30 00:29:22;;;;;;;6.50;5.90;;;19.40;99.90;;;;;;5050107;28;20221;-60
2022/08/30 00:31:48;;;;;;;5.70;5.30;;;18.90;99.90;;;;;;5043324;28;20198;-60
2022/08/30 00:34:15;;;;;;;6.57;5.97;;;18.80;99.90;;;;;;5046664;28;20538;-59
2022/08/30 00:36:42;;;;;;;6.97;6.32;;;18.80;99.90;;;;;;5050486;28;20621;-59
2022/08/30 00:39:07;;;;;;;6.35;5.70;;;18.80;99.90;;;;;;5043237;28;20207;-59
2022/08/30 00:41:33;;;;;;;6.60;6.10;;;18.70;99.90;;;;;;5051890;28;20177;-59
2022/08/30 00:44:00;;;;;;;6.72;5.93;;;18.70;99.90;;;;;;5050716;28;20209;-60
2022/08/30 00:46:26;;;;;;;6.30;5.70;;;18.70;99.90;;;;;;5046696;28;20182;-59
2022/08/30 00:48:52;;;;;;;7.60;6.75;;;18.60;99.90;;;;;;5052957;28;20209;-59
2022/08/30 00:51:20;;;;;;;5.80;5.30;;;18.60;99.90;;;;;;5051114;28;20262;-59
2022/08/30 00:53:49;;;;;;;8.07;6.70;;;18.50;99.90;;;;;;5043868;28;20491;-59
2022/08/30 00:56:16;;;;;;;6.72;6.03;;;18.40;99.90;;;;;;5046673;28;20177;-59
2022/08/30 00:58:45;;;;;;;6.35;5.75;;;18.40;99.90;;;;;;5051445;28;20194;-59
2022/08/30 01:01:12;;;;;;;5.85;5.35;;;18.40;99.90;;;;;;5046346;28;20202;-59
2022/08/30 01:03:38;;;;;;;7.03;6.20;;;18.40;99.90;;;;;;5049264;28;20185;-60
2022/08/30 01:06:06;;;;;;;7.43;6.13;;;18.40;99.90;;;;;;5051733;28;20651;-58
2022/08/30 01:08:32;;;;;;;7.57;6.57;;;18.30;99.90;;;;;;5046515;28;20209;-60
2022/08/30 01:10:59;;;;;;;6.90;6.20;;;18.30;99.90;;;;;;5050322;28;20210;-60
2022/08/30 01:13:25;;;;;;;6.30;5.50;;;18.40;99.90;;;;;;5049004;28;20186;-60
2022/08/30 01:15:51;;;;;;;5.78;5.28;;;18.30;99.90;;;;;;5053583;28;20189;-60
2022/08/30 01:18:17;;;;;;;7.87;6.70;;;18.30;99.90;;;;;;5045309;28;20197;-60
2022/08/30 01:21:02;;;;;;;7.28;6.68;;;18.30;99.90;;;;;;5043356;28;20451;-59
2022/08/30 01:23:30;;;;;;;6.82;5.22;;;18.30;99.90;;;;;;5049771;28;20215;-60
2022/08/30 01:25:56;;;;;;;6.00;5.50;;;18.20;99.90;;;;;;5051464;28;20216;-59
2022/08/30 01:28:24;;;;;;;7.38;6.13;;;18.20;99.90;;;;;;5041880;28;20209;-62
2022/08/30 01:30:51;;;;;;;7.90;6.53;;;18.20;99.90;;;;;;5050906;28;20296;-61
2022/08/30 01:33:18;;;;;;;6.40;5.80;;;18.10;99.90;;;;;;5048953;28;20194;-62
2022/08/30 01:35:58;;;;;;;6.93;6.22;;;18.10;99.90;;;;;;5049685;28;20261;-62
2022/08/30 01:38:27;;;;;;;7.00;5.50;;;18.10;99.90;;;;;;5043260;28;20590;-60
2022/08/30 01:40:59;;;;;;;5.85;5.45;;;18.10;99.90;;;;;;5046884;28;20205;-61
2022/08/30 01:43:25;;;;;;;6.75;6.15;;;18.00;99.90;;;;;;5047545;28;20208;-60
2022/08/30 01:45:51;;;;;;;6.03;5.47;;;18.00;99.90;;;;;;5041033;28;20186;-60
2022/08/30 01:48:16;;;;;;;6.57;6.03;;;18.10;99.90;;;;;;5052830;28;20373;-61
2022/08/30 01:50:42;;;;;;;6.40;5.90;;;18.10;99.90;;;;;;5044650;28;20328;-60
2022/08/30 01:53:08;;;;;;;7.07;6.10;;;18.00;99.90;;;;;;5048304;28;20561;-60
2022/08/30 01:55:34;;;;;;;6.03;5.33;;;18.00;99.90;;;;;;5049705;28;20186;-60
2022/08/30 01:58:00;;;;;;;6.15;5.65;;;18.20;99.90;;;;;;5043054;28;20948;-61
2022/08/30 02:00:25;;;;;;;7.03;6.00;;;18.00;99.90;;;;;;5049615;28;20212;-59
2022/08/30 02:02:51;;;;;;;7.47;6.77;;;17.90;99.90;;;;;;5048487;28;20193;-59
2022/08/30 02:05:17;;;;;;;7.30;6.67;;;17.90;99.90;;;;;;5047290;28;20642;-59
2022/08/30 02:07:42;;;;;;;7.07;6.37;;;17.90;99.90;;;;;;5026491;28;20209;-59
2022/08/30 02:10:09;;;;;;;6.63;6.03;;;17.80;99.90;;;;;;5049586;28;20507;-60
2022/08/30 02:12:34;;;;;;;6.65;6.05;;;17.90;99.90;;;;;;5044353;28;20178;-59
2022/08/30 02:15:00;;;;;;;10.17;5.73;;;18.30;99.90;;;;;;5048966;28;20264;-60
2022/08/30 02:17:26;;;;;;;7.93;6.30;;;18.00;99.90;;;;;;5053066;28;20621;-59
2022/08/30 02:19:52;;;;;;;7.33;5.80;;;17.90;99.90;;;;;;5041852;28;20220;-60
2022/08/30 02:22:19;;;;;;;6.57;6.07;;;17.80;99.90;;;;;;5043043;28;20951;-60
2022/08/30 02:24:45;;;;;;;6.80;6.30;;;18.10;99.90;;;;;;5048422;28;20213;-59
2022/08/30 02:27:10;;;;;;;6.53;5.83;;;17.80;99.90;;;;;;5054576;28;20612;-59
2022/08/30 02:29:36;;;;;;;7.70;6.90;;;17.70;99.90;;;;;;5045546;28;20650;-60
2022/08/30 02:32:02;;;;;;;7.03;5.73;;;17.70;99.90;;;;;;5037264;28;20188;-60
2022/08/30 02:34:28;;;;;;;7.07;6.37;;;17.70;99.90;;;;;;5032518;28;20186;-60
2022/08/30 02:36:53;;;;;;;7.63;6.03;;;17.70;99.90;;;;;;5045518;28;20435;-60
2022/08/30 02:39:19;;;;;;;9.60;6.50;;;17.70;99.90;;;;;;5046297;28;20209;-58
2022/08/30 02:41:45;;;;;;;7.80;6.80;;;17.60;99.90;;;;;;5031547;28;20185;-58
2022/08/30 02:44:10;;;;;;;6.60;6.00;;;17.70;99.90;;;;;;5048389;28;20978;-58
2022/08/30 02:46:36;;;;;;;6.83;6.20;;;17.60;99.90;;;;;;5047519;28;20190;-58
2022/08/30 02:49:03;;;;;;;8.27;6.75;;;17.60;99.90;;;;;;5045705;28;20239;-58
2022/08/30 02:51:29;;;;;;;6.78;6.18;;;17.50;99.90;;;;;;5046449;28;20189;-58
2022/08/30 02:53:54;;;;;;;7.80;6.13;;;17.50;99.90;;;;;;5046279;28;20198;-58
2022/08/30 02:56:20;;;;;;;6.80;6.17;;;17.50;99.90;;;;;;5043219;28;20217;-59
2022/08/30 02:58:46;;;;;;;7.70;7.10;;;17.50;99.90;;;;;;5044593;28;20173;-59
2022/08/30 03:01:14;;;;;;;6.65;6.05;;;17.50;99.90;;;;;;5022889;28;20220;-59
2022/08/30 03:03:41;;;;;;;8.00;7.20;;;17.50;99.90;;;;;;5045640;28;20188;-58
2022/08/30 03:06:09;;;;;;;7.72;5.97;;;17.50;99.90;;;;;;5050096;28;20247;-58
2022/08/30 03:08:35;;;;;;;7.90;7.30;;;17.30;99.90;;;;;;5045235;28;20225;-58
2022/08/30 03:11:01;;;;;;;8.18;6.75;;;17.40;99.90;;;;;;5042946;28;20193;-59
2022/08/30 03:13:27;;;;;;;7.13;6.53;;;17.50;99.90;;;;;;5050234;28;20177;-59
2022/08/30 03:15:53;;;;;;;6.32;5.55;;;17.40;99.90;;;;;;5050214;28;20193;-58
2022/08/30 03:18:20;;;;;;;6.73;6.13;;;17.40;99.90;;;;;;5045790;28;20594;-58
2022/08/30 03:20:47;;;;;;;7.07;5.75;;;17.30;99.90;;;;;;5032941;28;20592;-62
2022/08/30 03:23:14;;;;;;;8.30;6.70;;;17.40;99.90;;;;;;5045749;28;20190;-60
2022/08/30 03:25:39;;;;;;;7.85;6.95;;;17.30;99.90;;;;;;5047394;28;20658;-60
2022/08/30 03:28:06;;;;;;;6.87;6.17;;;17.30;99.90;;;;;;5038735;28;20232;-60
2022/08/30 03:30:32;;;;;;;6.70;6.10;;;17.50;99.90;;;;;;5046400;28;20286;-60
2022/08/30 03:32:59;;;;;;;7.05;6.35;;;17.20;99.90;;;;;;5047446;28;20181;-60
2022/08/30 03:35:24;;;;;;;7.03;6.20;;;17.20;99.90;;;;;;5050087;28;20669;-61
2022/08/30 03:37:50;;;;;;;7.37;6.67;;;17.10;99.90;;;;;;5050605;28;20185;-60
2022/08/30 03:40:18;;;;;;;7.60;6.90;;;17.10;99.90;;;;;;5047396;28;20862;-61
2022/08/30 03:42:45;;;;;;;7.22;6.35;;;17.00;99.90;;;;;;5042474;28;20544;-61
2022/08/30 03:45:12;;;;;;;7.50;6.75;;;16.90;99.90;;;;;;5047274;28;20181;-60
2022/08/30 03:47:38;;;;;;;6.65;6.10;;;17.10;99.90;;;;;;5046278;28;20193;-60
2022/08/30 03:50:05;;;;;;;8.17;6.70;;;17.00;99.90;;;;;;5049896;28;20270;-61
2022/08/30 03:52:30;;;;;;;6.50;5.90;;;17.00;99.90;;;;;;5044021;28;20186;-60
2022/08/30 03:54:56;;;;;;;6.73;6.13;;;17.00;99.90;;;;;;5038610;28;20186;-61
2022/08/30 03:57:21;;;;;;;7.93;7.27;;;16.80;99.90;;;;;;5044762;28;20205;-62
2022/08/30 03:59:47;;;;;;;7.13;6.53;;;16.90;99.90;;;;;;5053530;28;20205;-61
2022/08/30 04:02:13;;;;;;;7.40;6.70;;;17.20;99.90;;;;;;5034862;28;20198;-61
2022/08/30 04:04:38;;;;;;;7.60;6.90;;;16.90;99.90;;;;;;5044829;28;20666;-61
2022/08/30 04:07:04;;;;;;;8.33;6.30;;;17.00;99.90;;;;;;5034834;28;20185;-60
2022/08/30 04:09:30;;;;;;;7.40;6.60;;;16.90;99.90;;;;;;5048035;28;20241;-60
2022/08/30 04:11:55;;;;;;;6.67;5.97;;;17.20;99.90;;;;;;5048891;28;20170;-60
2022/08/30 04:14:22;;;;;;;7.77;7.03;;;16.50;99.90;;;;;;5058109;28;20184;-60
2022/08/30 04:16:48;;;;;;;8.30;7.00;;;16.90;99.90;;;;;;5031970;28;20189;-60
2022/08/30 04:19:13;;;;;;;8.43;7.30;;;16.80;99.90;;;;;;5046097;28;20209;-58
2022/08/30 04:21:39;;;;;;;8.27;7.07;;;16.80;99.90;;;;;;5052087;28;20436;-58
2022/08/30 04:24:05;;;;;;;7.53;6.80;;;16.90;99.90;;;;;;5040672;28;20632;-59
2022/08/30 04:26:30;;;;;;;7.90;6.40;;;16.90;99.90;;;;;;5049912;28;20234;-58
2022/08/30 04:28:56;;;;;;;8.50;7.70;;;16.70;99.90;;;;;;5045190;28;20708;-59
2022/08/30 04:31:22;;;;;;;10.15;7.80;;;16.80;99.90;;;;;;5046815;28;20201;-58
2022/08/30 04:33:48;;;;;;;9.97;9.10;;;17.10;99.90;;;;;;5051069;28;20635;-59
2022/08/30 04:36:14;;;;;;;8.00;7.17;;;16.90;99.90;;;;;;5041056;28;20443;-59
2022/08/30 04:38:40;;;;;;;7.20;6.50;;;16.80;99.90;;;;;;5045959;28;20178;-59
2022/08/30 04:41:15;;;;;;;7.32;6.63;;;17.10;99.90;;;;;;5059714;28;20201;-60
2022/08/30 04:43:42;;;;;;;6.95;6.22;;;17.00;99.90;;;;;;5053152;28;20181;-59
2022/08/30 04:46:08;;;;;;;7.95;7.10;;;16.80;99.90;;;;;;5052915;28;20663;-60
2022/08/30 04:48:36;;;;;;;8.50;7.13;;;16.80;99.90;;;;;;5052205;28;20219;-61
2022/08/30 04:51:04;;;;;;;8.48;7.47;;;16.80;99.90;;;;;;5052067;28;20391;-61
2022/08/30 04:53:30;;;;;;;7.75;6.95;;;16.80;99.90;;;;;;5047332;28;20174;-61
2022/08/30 04:55:56;;;;;;;7.43;6.77;;;16.80;99.90;;;;;;5051215;28;20194;-61
2022/08/30 04:58:22;;;;;;;9.20;7.00;;;16.90;99.90;;;;;;5051610;28;20550;-61
2022/08/30 05:00:47;;;;;;;8.23;7.00;;;16.90;99.90;;;;;;5051741;28;20451;-61
2022/08/30 05:03:14;;;;;;;7.50;6.90;;;16.70;99.90;;;;;;5044202;28;20215;-61
2022/08/30 05:05:45;;;;;;;8.85;6.70;;;17.00;99.90;;;;;;5051490;28;20187;-61
2022/08/30 05:08:14;;;;;;;12.65;7.82;;;16.70;99.90;;;;;;5044669;28;20217;-61
2022/08/30 05:10:48;;;;;;;7.88;7.10;;;16.90;99.90;;;;;;5047122;28;20236;-60
2022/08/30 05:13:15;;;;;;;8.05;7.25;;;16.90;99.90;;;;;;5050573;28;20206;-61
2022/08/30 05:15:41;;;;;;;8.75;7.88;;;16.60;99.90;;;;;;5046410;28;20185;-61
2022/08/30 05:18:08;;;;;;;8.40;7.37;;;17.10;99.90;;;;;;5032465;28;20173;-61
2022/08/30 05:20:35;;;;;;;8.55;7.75;;;17.10;99.90;;;;;;5049116;28;20273;-61
2022/08/30 05:23:01;;;;;;;7.78;6.97;;;17.10;99.90;;;;;;5046736;28;20189;-60
2022/08/30 05:25:29;;;;;;;8.17;7.47;;;17.10;99.90;;;;;;5045372;28;20605;-61
2022/08/30 05:27:55;;;;;;;8.90;7.35;;;17.30;99.90;;;;;;5046877;28;20186;-63
2022/08/30 05:30:22;;;;;;;9.10;7.47;;;17.50;99.90;;;;;;5053374;28;20300;-61
2022/08/30 05:32:48;;;;;;;9.40;7.40;;;17.50;99.90;;;;;;5051604;28;20276;-60
2022/08/30 05:35:15;;;;;;;11.27;7.70;;;17.50;99.90;;;;;;5047109;28;20726;-61
2022/08/30 05:37:41;;;;;;;8.13;7.20;;;17.60;99.90;;;;;;5046214;28;20804;-61
2022/08/30 05:40:08;;;;;;;8.10;7.30;;;17.90;99.90;;;;;;5051480;28;20212;-61
2022/08/30 05:42:34;;;;;;;10.18;7.40;;;18.00;99.90;;;;;;5031707;28;20192;-61
2022/08/30 05:45:00;;;;;;;8.32;7.40;;;18.00;99.90;;;;;;5048692;28;20173;-61
2022/08/30 05:47:27;;;;;;;8.52;7.72;;;18.10;99.90;;;;;;5042143;28;20218;-62
2022/08/30 05:49:52;;;;;;;10.48;7.25;;;18.10;99.90;;;;;;5040663;28;20220;-62
2022/08/30 05:52:18;;;;;;;11.10;8.03;;;18.20;99.90;;;;;;5049470;28;20189;-61
2022/08/30 05:54:44;;;;;;;8.80;8.00;;;18.20;99.90;;;;;;5045893;28;20276;-61
2022/08/30 05:57:10;;;;;;;8.25;7.53;;;18.30;99.90;;;;;;5045302;28;20432;-61
2022/08/30 05:59:37;;;;;;;8.07;6.97;;;18.40;99.90;;;;;;5031801;28;20746;-63
2022/08/30 06:02:03;;;;;;;7.43;6.82;;;18.40;99.90;;;;;;5040207;28;20190;-61
2022/08/30 06:04:29;;;;;;;7.28;6.68;;;18.40;99.90;;;;;;5037768;28;20207;-64
2022/08/30 06:06:55;;;;;;;7.60;7.00;;;18.50;99.90;;;;;;5045672;28;20650;-63
2022/08/30 06:09:21;;;;;;;9.10;7.60;;;18.60;99.90;;;;;;5036200;28;20206;-62
2022/08/30 06:11:47;;;;;;;7.60;6.87;;;18.60;99.90;;;;;;5046900;28;20185;-63
2022/08/30 06:14:13;;;;;;;7.80;7.10;;;18.70;99.90;;;;;;5047689;28;20531;-62
2022/08/30 06:16:40;;;;;;;10.18;8.15;;;18.70;99.90;;;;;;5043738;28;20189;-63
2022/08/30 06:19:07;;;;;;;8.57;7.68;;;18.80;99.90;;;;;;5047866;28;20194;-63
2022/08/30 06:21:35;;;;;;;9.07;8.18;;;18.80;99.90;;;;;;5044292;28;20283;-62
2022/08/30 06:24:02;;;;;;;9.93;8.80;;;19.00;99.90;;;;;;5025873;28;20235;-62
2022/08/30 06:26:28;;;;;;;11.20;8.93;;;19.30;99.90;;;;;;5049461;28;20190;-61
2022/08/30 06:28:55;;;;;;;9.90;8.35;;;19.50;99.90;;;;;;5041118;28;20289;-61
2022/08/30 06:31:23;;;;;;;9.52;8.55;;;19.80;99.90;;;;;;5047874;28;20189;-61
2022/08/30 06:33:50;;;;;;;8.10;7.45;;;20.10;99.90;;;;;;5043705;28;20288;-62
2022/08/30 06:36:21;;;;;;;9.68;8.05;;;20.40;99.90;;;;;;5046366;28;20213;-61
2022/08/30 06:38:53;;;;;;;8.95;7.97;;;20.60;99.90;;;;;;5029025;28;20630;-61
2022/08/30 06:41:21;;;;;;;9.27;8.40;;;21.00;99.90;;;;;;5039917;28;22962;-56
2022/08/30 06:43:47;;;;;;;8.43;7.55;;;21.20;99.90;;;;;;5046533;28;20200;-57
2022/08/30 06:46:17;;;;;;;13.63;8.20;;;21.50;99.90;;;;;;5049623;28;20201;-57
2022/08/30 06:48:43;;;;;;;8.68;7.80;;;21.80;99.90;;;;;;5035677;28;20622;-57
2022/08/30 06:51:08;;;;;;;9.60;8.60;;;22.00;99.20;;;;;;5044574;28;20280;-57
2022/08/30 06:53:34;;;;;;;10.07;8.60;;;22.00;99.20;;;;;;5046754;28;20237;-61
2022/08/30 06:56:06;;;;;;;9.40;8.50;;;22.10;98.80;;;;;;5047371;28;20260;-61
2022/08/30 06:58:34;;;;;;;10.87;9.10;;;22.30;98.60;;;;;;5044903;28;20579;-61
2022/08/30 07:01:00;;;;;;;10.83;9.73;;;22.40;98.30;;;;;;5046260;28;20456;-59
2022/08/30 07:03:26;;;;;;;9.70;8.80;;;22.50;98.50;;;;;;5047859;28;20462;-60
2022/08/30 07:05:53;;;;;;;10.50;8.73;;;22.50;97.80;;;;;;5047144;28;20444;-61
2022/08/30 07:08:19;;;;;;;15.87;9.37;;;23.00;97.30;;;;;;5035107;28;20972;-57
2022/08/30 07:10:45;;;;;;;9.83;8.57;;;23.50;96.30;;;;;;5042948;28;20481;-57
2022/08/30 07:13:11;;;;;;;9.47;8.40;;;24.20;95.20;;;;;;5046316;28;20465;-59
2022/08/30 07:15:41;;;;;;;9.53;8.73;;;26.00;92.50;;;;;;5048269;28;20973;-58
2022/08/30 07:20:51;;;;;;;9.30;8.40;;;28.20;81.30;;;;;;5045695;28;20524;-57
2022/08/30 07:23:17;;;;;;;9.47;8.23;;;30.00;78.30;;;;;;5045321;28;20445;-55
2022/08/30 07:25:43;;;;;;;12.87;11.67;;;31.40;69.40;;;;;;5037599;28;20277;-56
2022/08/30 07:28:10;;;;;;;10.30;9.50;;;31.90;66.20;;;;;;5038018;28;20223;-57
2022/08/30 07:30:37;;;;;;;10.23;9.23;;;32.20;65.40;;;;;;5029190;28;20227;-58
2022/08/30 07:33:03;;;;;;;9.30;8.40;;;32.40;63.20;;;;;;5038744;28;20814;-58
2022/08/30 07:35:30;;;;;;;9.47;8.20;;;32.90;61.60;;;;;;5046328;28;20467;-60
2022/08/30 07:37:56;;;;;;;9.20;8.30;;;34.20;58.60;;;;;;5043417;28;20462;-62
2022/08/30 07:40:22;;;;;;;9.17;8.37;;;34.70;56.20;;;;;;5041388;28;20563;-61
2022/08/30 07:42:47;;;;;;;9.00;8.20;;;35.30;55.10;;;;;;5051429;28;20542;-60
2022/08/30 07:45:13;;;;;;;10.50;8.70;;;35.00;53.70;;;;;;5049382;28;20559;-61
2022/08/30 07:47:39;;;;;;;10.23;9.03;;;34.60;52.80;;;;;;5048985;28;20374;-59
2022/08/30 07:50:05;;;;;;;8.33;7.70;;;34.40;55.60;;;;;;5046074;28;20220;-71
2022/08/30 07:52:32;;;;;;;9.23;8.40;;;35.30;53.10;;;;;;5033876;28;20574;-61
2022/08/30 07:54:58;;;;;;;8.60;7.90;;;34.30;53.90;;;;;;5040923;28;20501;-55
2022/08/30 07:57:24;;;;;;;8.93;8.03;;;32.80;55.70;;;;;;5044406;28;20503;-55
2022/08/30 07:59:50;;;;;;;12.90;11.90;;;33.60;56.00;;;;;;5044234;28;20471;-55
2022/08/30 08:02:17;;;;;;;8.90;8.10;;;35.00;54.00;;;;;;5040946;28;20457;-65
2022/08/30 08:04:42;;;;;;;8.80;8.00;;;35.60;52.50;;;;;;5048555;28;20451;-66
2022/08/30 08:07:08;;;;;;;9.53;7.80;;;36.30;51.40;;;;;;5044093;28;20440;-71
2022/08/30 08:09:35;;;;;;;8.93;7.33;;;36.30;51.20;;;;;;5038730;28;20633;-64
2022/08/30 08:12:03;;;;;;;8.33;6.80;;;36.40;49.60;;;;;;5045913;28;20177;-62
2022/08/30 08:14:28;;;;;;;8.97;8.17;;;36.00;50.20;;;;;;5049533;28;20920;-64
2022/08/30 08:16:54;;;;;;;12.47;11.30;;;35.20;50.60;;;;;;5043252;28;20454;-62
2022/08/30 08:19:19;;;;;;;8.13;7.43;;;35.60;50.70;;;;;;5048798;28;20205;-63
2022/08/30 08:21:45;;;;;;;7.87;7.17;;;35.90;49.80;;;;;;5048542;28;20550;-65
2022/08/30 08:24:11;;;;;;;10.10;8.77;;;35.80;50.20;;;;;;5047611;28;20188;-69
2022/08/30 08:26:37;;;;;;;9.07;8.17;;;34.10;51.50;;;;;;5042288;28;20265;-57
2022/08/30 08:29:05;;;;;;;8.93;8.23;;;34.10;52.20;;;;;;5047863;28;20222;-57
2022/08/30 08:31:31;;;;;;;7.90;7.07;;;35.60;51.60;;;;;;5045188;28;21262;-57
2022/08/30 08:33:58;;;;;;;8.37;7.67;;;35.90;48.80;;;;;;5047452;28;20526;-57
2022/08/30 08:36:25;;;;;;;9.40;8.57;;;35.70;49.40;;;;;;5045649;28;20328;-57
2022/08/30 08:38:51;;;;;;;9.30;8.33;;;36.00;48.70;;;;;;5047682;28;20538;-60
2022/08/30 08:41:49;;;;;;;8.20;7.60;;;37.20;48.60;;;;;;5051573;28;20964;-61
2022/08/30 08:44:46;;;;;;;7.37;6.57;;;38.90;45.60;;;;;;4982288;28;20447;-61
2022/08/30 08:47:20;;;;;;;10.37;7.10;;;39.70;43.90;;;;;;5047021;28;20444;-61
2022/08/30 08:49:50;;;;;;;8.23;7.53;;;40.30;42.80;;;;;;5046057;28;21187;-61
2022/08/30 08:55:50;;;;;;;11.50;8.00;;;41.20;40.50;;;;;;5018613;28;20485;-61
2022/08/30 08:58:25;;;;;;;9.13;8.33;;;40.50;40.40;;;;;;5045102;28;20427;-61
2022/08/30 09:00:52;;;;;;;7.77;7.17;;;39.80;39.70;;;;;;5043730;28;20581;-61
2022/08/30 09:03:21;;;;;;;11.60;7.37;;;39.20;41.70;;;;;;5043394;28;20432;-61
2022/08/30 09:05:48;;;;;;;9.17;8.27;;;40.40;40.80;;;;;;5050238;28;20907;-61
2022/08/30 09:08:17;;;;;;;7.97;7.27;;;39.70;40.60;;;;;;5043438;28;20583;-62
2022/08/30 09:10:55;;;;;;;8.10;7.47;;;40.40;40.70;;;;;;5051528;28;20467;-63
2022/08/30 09:13:23;;;;;;;8.47;7.77;;;39.80;41.30;;;;;;5045232;28;20473;-61
2022/08/30 09:15:50;;;;;;;8.87;8.07;;;39.50;41.00;;;;;;5047135;28;20433;-61
2022/08/30 09:18:17;;;;;;;8.37;7.60;;;38.30;42.40;;;;;;5044085;28;20530;-61
2022/08/30 09:20:47;;;;;;;9.50;8.60;;;36.90;43.50;;;;;;5046736;28;20556;-61
2022/08/30 09:23:16;;;;;;;8.07;7.30;;;35.10;46.40;;;;;;5043517;28;21085;-61
2022/08/30 09:25:53;;;;;;;7.13;6.60;;;33.80;49.70;;;;;;5042923;28;20954;-60
2022/08/30 09:28:26;;;;;;;7.20;6.43;;;33.10;51.30;;;;;;5045879;28;20828;-60
2022/08/30 09:31:04;;;;;;;7.17;6.47;;;32.50;52.70;;;;;;5030232;28;20478;-60
2022/08/30 09:33:30;;;;;;;7.57;6.83;;;31.20;55.00;;;;;;5051598;28;20454;-60
2022/08/30 09:36:08;;;;;;;7.13;6.47;;;30.40;55.90;;;;;;5051291;28;20470;-60
2022/08/30 09:38:34;;;;;;;7.30;6.80;;;30.20;58.00;;;;;;5044104;28;20544;-60
2022/08/30 09:41:21;;;;;;;8.30;7.47;;;29.90;58.70;;;;;;5048194;28;20466;-60
2022/08/30 09:44:11;;;;;;;7.30;6.70;;;29.50;59.00;;;;;;5051065;28;20451;-60
2022/08/30 09:46:51;;;;;;;6.57;6.03;;;29.70;59.70;;;;;;5041945;28;20536;-59
2022/08/30 09:49:37;;;;;;;7.10;6.60;;;29.60;59.70;;;;;;5041006;28;20478;-59
2022/08/30 09:52:21;;;;;;;7.00;6.40;;;29.50;60.60;;;;;;5031002;28;20458;-59
2022/08/30 09:55:05;;;;;;;6.70;6.00;;;29.60;58.40;;;;;;5039150;28;20453;-59
2022/08/30 09:57:51;;;;;;;6.37;5.77;;;29.60;58.20;;;;;;5048483;28;20441;-59
2022/08/30 10:00:21;;;;;;;6.00;5.60;;;29.70;58.60;;;;;;5039745;28;20470;-59
2022/08/30 10:03:04;;;;;;;6.57;5.97;;;29.60;57.30;;;;;;5040924;28;20636;-59
2022/08/30 10:05:54;;;;;;;6.03;5.53;;;29.70;57.20;;;;;;5039954;28;20653;-60
2022/08/30 10:09:02;;;;;;;6.97;6.17;;;29.70;56.80;;;;;;5032696;28;20469;-60
2022/08/30 10:11:46;;;;;;;5.70;5.30;;;29.70;58.50;;;;;;5046285;28;20509;-60
2022/08/30 10:14:35;;;;;;;7.00;6.30;;;29.60;57.00;;;;;;5041998;28;20475;-63
2022/08/30 10:17:22;;;;;;;5.77;5.20;;;29.70;56.60;;;;;;5043604;28;20458;-62
2022/08/30 10:19:57;;;;;;;6.70;6.00;;;29.70;55.70;;;;;;5031810;28;20521;-64
2022/08/30 10:22:45;;;;;;;5.60;5.10;;;29.70;55.80;;;;;;5050036;28;20816;-62
2022/08/30 10:25:25;;;;;;;6.50;5.90;;;29.60;57.10;;;;;;5046683;28;20527;-62
2022/08/30 10:28:03;;;;;;;5.73;5.20;;;29.60;56.80;;;;;;5051200;28;20432;-65
2022/08/30 10:30:32;;;;;;;6.30;5.80;;;29.60;55.70;;;;;;5052200;28;20480;-62
2022/08/30 10:33:09;;;;;;;6.90;5.33;;;29.70;56.60;;;;;;5040023;28;20549;-62
2022/08/30 10:35:46;;;;;;;5.53;5.10;;;29.70;55.60;;;;;;5044481;28;20550;-65
2022/08/30 10:38:21;;;;;;;5.77;5.37;;;29.60;54.80;;;;;;5019139;28;20443;-63
2022/08/30 10:43:46;;;;;;;5.50;5.20;;;29.50;54.30;;;;;;5044013;28;20814;-63
2022/08/30 10:46:18;;;;;;;4.60;4.30;;;29.40;53.80;;;;;;5042719;28;20484;-63
2022/08/30 10:48:46;;;;;;;5.00;4.60;;;29.40;52.20;;;;;;5047078;28;20454;-63
2022/08/30 10:51:21;;;;;;;5.00;4.60;;;29.40;51.80;;;;;;5042812;28;20450;-63
2022/08/30 10:53:51;;;;;;;5.47;4.97;;;29.40;51.80;;;;;;5042675;28;20437;-63
2022/08/30 10:56:23;;;;;;;5.40;5.00;;;29.40;53.20;;;;;;5047021;28;20908;-63
2022/08/30 10:58:49;;;;;;;4.93;4.43;;;29.50;54.10;;;;;;5039673;28;20489;-67
2022/08/30 11:01:34;;;;;;;5.80;5.30;;;29.70;52.70;;;;;;5041226;28;20606;-65
2022/08/30 11:04:28;;;;;;;5.33;4.93;;;29.90;52.00;;;;;;5045856;28;20515;-65
2022/08/30 11:07:20;;;;;;;5.00;4.60;;;30.20;51.20;;;;;;5034352;28;20854;-66
2022/08/30 11:10:23;;;;;;;5.20;4.80;;;30.00;52.10;;;;;;5042102;28;20554;-66
2022/08/30 11:13:01;;;;;;;4.87;4.47;;;29.80;52.10;;;;;;5009577;28;20564;-66
2022/08/30 11:15:30;;;;;;;5.30;4.80;;;30.00;52.70;;;;;;5038905;28;20519;-66
2022/08/30 11:18:04;;;;;;;6.03;5.63;;;30.00;53.20;;;;;;5024520;28;20436;-66
2022/08/30 11:20:52;;;;;;;5.63;5.23;;;29.90;54.10;;;;;;5043409;28;20474;-66
2022/08/30 11:23:24;;;;;;;5.60;5.20;;;29.80;54.70;;;;;;5040847;28;20926;-67
2022/08/30 11:25:52;;;;;;;6.20;5.70;;;30.10;53.80;;;;;;5044910;28;20476;-66
2022/08/30 11:28:36;;;;;;;5.33;4.90;;;30.20;53.70;;;;;;5047029;28;20444;-67
2022/08/30 11:31:09;;;;;;;10.20;9.30;;;30.50;53.10;;;;;;5042230;28;20486;-67
2022/08/30 11:33:52;;;;;;;5.50;5.10;;;30.80;53.30;;;;;;5030280;28;20838;-66
2022/08/30 11:36:41;;;;;;;6.00;5.50;;;31.20;50.70;;;;;;5045527;28;20559;-66
2022/08/30 11:39:32;;;;;;;5.20;4.80;;;31.40;50.60;;;;;;5038635;28;20450;-66
2022/08/30 11:42:27;;;;;;;5.53;5.13;;;31.20;51.20;;;;;;5039244;28;20844;-66
2022/08/30 11:44:52;;;;;;;6.20;5.70;;;31.10;51.30;;;;;;5042435;28;20806;-66
2022/08/30 11:47:43;;;;;;;7.60;7.00;;;30.90;51.90;;;;;;5038780;28;20445;-66
2022/08/30 11:50:18;;;;;;;5.70;5.20;;;30.80;52.50;;;;;;5039347;28;20304;-66
2022/08/30 11:52:53;;;;;;;6.00;5.50;;;30.90;51.50;;;;;;5050658;28;20447;-66
2022/08/30 11:55:34;;;;;;;5.67;5.07;;;30.80;50.90;;;;;;5044668;28;21166;-66
2022/08/30 11:58:33;;;;;;;5.27;4.80;;;30.50;52.00;;;;;;5029121;28;20440;-66
2022/08/30 12:01:18;;;;;;;5.20;4.80;;;30.40;53.10;;;;;;4998313;28;20475;-66
2022/08/30 12:03:44;;;;;;;7.13;6.53;;;30.40;53.10;;;;;;5038854;28;20446;-67
2022/08/30 12:06:31;;;;;;;6.00;5.50;;;30.50;53.00;;;;;;5039770;28;20450;-66
2022/08/30 12:08:56;;;;;;;5.57;5.17;;;30.50;53.20;;;;;;5040199;28;20288;-65
2022/08/30 12:11:22;;;;;;;5.23;4.93;;;30.60;52.60;;;;;;5040464;28;20525;-65
2022/08/30 12:13:48;;;;;;;5.77;5.10;;;30.50;53.10;;;;;;5045498;28;20194;-66
2022/08/30 12:16:23;;;;;;;6.10;5.70;;;30.60;52.10;;;;;;5040293;28;20575;-66
2022/08/30 12:18:59;;;;;;;5.80;5.37;;;30.70;52.30;;;;;;5046409;28;22254;-65
2022/08/30 12:21:31;;;;;;;5.50;5.20;;;30.70;52.10;;;;;;5041893;28;20465;-66
2022/08/30 12:24:12;;;;;;;5.30;4.90;;;30.80;52.50;;;;;;5044901;28;20953;-65
2022/08/30 12:26:41;;;;;;;5.90;5.40;;;30.70;52.50;;;;;;5037492;28;20444;-66
2022/08/30 12:29:20;;;;;;;6.00;5.60;;;30.70;52.50;;;;;;5039435;28;20534;-65
2022/08/30 12:32:07;;;;;;;5.83;5.43;;;30.60;52.40;;;;;;5057049;28;20870;-66
2022/08/30 12:34:39;;;;;;;5.97;5.47;;;30.50;52.70;;;;;;5051085;28;20474;-66
2022/08/30 12:37:25;;;;;;;5.33;4.93;;;30.50;53.20;;;;;;5051934;28;20424;-66
2022/08/30 12:40:11;;;;;;;5.77;5.20;;;30.60;52.60;;;;;;5042396;28;20459;-66
2022/08/30 12:42:41;;;;;;;5.63;5.20;;;30.70;52.50;;;;;;5049325;28;20450;-66
2022/08/30 12:45:12;;;;;;;5.80;5.30;;;30.80;52.50;;;;;;5045847;28;21166;-66
2022/08/30 12:47:51;;;;;;;5.63;5.23;;;31.00;52.30;;;;;;5047189;28;20479;-66
2022/08/30 12:50:21;;;;;;;6.33;5.93;;;31.10;52.10;;;;;;5044058;28;20475;-66
2022/08/30 12:53:06;;;;;;;5.53;5.13;;;31.20;51.90;;;;;;5044849;28;20499;-66
2022/08/30 12:55:35;;;;;;;7.00;6.40;;;31.20;52.60;;;;;;5048786;28;20440;-66
2022/08/30 12:58:08;;;;;;;10.03;7.73;;;31.10;51.70;;;;;;5043145;28;20429;-66
2022/08/30 13:00:39;;;;;;;7.50;6.90;;;31.00;52.20;;;;;;5049220;28;21010;-66
2022/08/30 13:03:25;;;;;;;6.00;5.60;;;31.00;52.20;;;;;;5045053;28;20554;-66
2022/08/30 13:05:51;;;;;;;5.83;5.33;;;30.90;51.70;;;;;;5046242;28;20460;-67
2022/08/30 13:08:29;;;;;;;5.13;4.77;;;31.00;51.70;;;;;;5042795;28;20460;-66
2022/08/30 13:11:01;;;;;;;6.00;5.60;;;31.10;52.00;;;;;;5049052;28;20495;-67